Time;durP1;ratioP1;P1;durP2;ratioP2;P2;SDS_P1;SDS_P2;PMS_P1;PMS_P2;Temp;Humidity;BMP_temperature;BMP_pressure;BME280_temperature;BME280_humidity;BME280_pressure;Samples;Min_cycle;Max_cycle;Signal;HPM_P1;HPM_P2
2022/05/12 00:01:32;;;;;;;;;;;;;;;;;;4978099;28;20008;-68
2022/05/12 00:03:58;;;;;;;;;;;;;;;;;;4977108;28;19917;-68
2022/05/12 00:06:24;;;;;;;;;;;;;;;;;;4977381;28;19997;-68
2022/05/12 00:08:50;;;;;;;;;;;;;;;;;;4978091;28;19917;-68
2022/05/12 00:11:16;;;;;;;;;;;;;;;;;;4977977;28;19910;-67
2022/05/12 00:13:41;;;;;;;;;;;;;;;;;;4976857;28;20273;-68
2022/05/12 00:16:08;;;;;;;;;;;;;;;;;;4976585;28;19910;-68
2022/05/12 00:18:34;;;;;;;;;;;;;;;;;;4977911;28;19980;-68
2022/05/12 00:21:00;;;;;;;;;;;;;;;;;;4976884;28;19998;-68
2022/05/12 00:23:28;;;;;;;;;;;;;;;;;;4977086;28;19946;-68
2022/05/12 00:25:54;;;;;;;;;;;;;;;;;;4976798;28;19917;-68
2022/05/12 00:28:20;;;;;;;;;;;;;;;;;;4976816;28;19941;-68
2022/05/12 00:30:46;;;;;;;;;;;;;;;;;;4976971;28;19936;-68
2022/05/12 00:33:12;;;;;;;;;;;;;;;;;;4977061;28;19914;-68
2022/05/12 00:35:38;;;;;;;;;;;;;;;;;;4976693;28;19917;-68
2022/05/12 00:38:04;;;;;;;;;;;;;;;;;;4977318;28;19922;-68
2022/05/12 00:40:30;;;;;;;;;;;;;;;;;;4976765;28;20000;-68
2022/05/12 00:42:56;;;;;;;;;;;;;;;;;;4976362;28;20361;-68
2022/05/12 00:45:22;;;;;;;;;;;;;;;;;;4976924;28;19914;-68
2022/05/12 00:47:48;;;;;;;;;;;;;;;;;;4977234;28;20392;-68
2022/05/12 00:50:14;;;;;;;;;;;;;;;;;;4976605;28;19917;-68
2022/05/12 00:52:41;;;;;;;;;;;;;;;;;;4976946;28;19917;-68
2022/05/12 00:55:07;;;;;;;;;;;;;;;;;;4976511;28;19910;-68
2022/05/12 00:57:32;;;;;;;;;;;;;;;;;;4976336;28;20349;-68
2022/05/12 00:59:58;;;;;;;;;;;;;;;;;;4976413;28;19953;-68
2022/05/12 01:02:24;;;;;;;;;;;;;;;;;;4976607;28;19917;-68
2022/05/12 01:04:50;;;;;;;;;;;;;;;;;;4976418;28;20277;-68
2022/05/12 01:07:16;;;;;;;;;;;;;;;;;;4976129;28;19910;-68
2022/05/12 01:09:42;;;;;;;;;;;;;;;;;;4976356;28;19968;-68
2022/05/12 01:12:10;;;;;;;;;;;;;;;;;;4976123;28;20361;-68
2022/05/12 01:14:36;;;;;;;;;;;;;;;;;;4976462;28;19957;-68
2022/05/12 01:17:02;;;;;;;;;;;;;;;;;;4976151;28;19957;-68
2022/05/12 01:19:28;;;;;;;;;;;;;;;;;;4976345;28;19914;-68
2022/05/12 01:21:54;;;;;;;;;;;;;;;;;;4976183;28;19953;-68
2022/05/12 01:24:20;;;;;;;;;;;;;;;;;;4975894;28;19910;-68
2022/05/12 01:26:45;;;;;;;;;;;;;;;;;;4975848;28;19917;-68
2022/05/12 01:29:12;;;;;;;;;;;;;;;;;;4976317;28;19910;-68
2022/05/12 01:31:37;;;;;;;;;;;;;;;;;;4976946;28;20001;-68
2022/05/12 01:34:03;;;;;;;;;;;;;;;;;;4976063;28;20008;-68
2022/05/12 01:36:29;;;;;;;;;;;;;;;;;;4976665;28;20227;-68
2022/05/12 01:38:55;;;;;;;;;;;;;;;;;;4975950;28;19914;-68
2022/05/12 01:41:22;;;;;;;;;;;;;;;;;;4975284;28;19918;-68
2022/05/12 01:43:47;;;;;;;;;;;;;;;;;;4975744;28;19961;-68
2022/05/12 01:46:13;;;;;;;;;;;;;;;;;;4976106;28;19917;-68
2022/05/12 01:48:39;;;;;;;;;;;;;;;;;;4976513;28;19910;-68
2022/05/12 01:51:05;;;;;;;;;;;;;;;;;;4975699;28;20000;-68
2022/05/12 01:53:31;;;;;;;;;;;;;;;;;;4975931;28;19957;-68
2022/05/12 01:55:58;;;;;;;;;;;;;;;;;;4975851;28;19997;-68
2022/05/12 01:58:24;;;;;;;;;;;;;;;;;;4975425;28;19961;-68
2022/05/12 02:00:50;;;;;;;;;;;;;;;;;;4975894;28;19914;-68
2022/05/12 02:03:16;;;;;;;;;;;;;;;;;;4975587;28;19917;-68
2022/05/12 02:05:42;;;;;;;;;;;;;;;;;;4975865;28;19914;-68
2022/05/12 02:08:08;;;;;;;;;;;;;;;;;;4976604;28;19936;-68
2022/05/12 02:10:38;;;;;;;;;;;;;;;;;;4975794;28;19910;-68
2022/05/12 02:13:04;;;;;;;;;;;;;;;;;;4975298;28;19947;-68
2022/05/12 02:15:30;;;;;;;;;;;;;;;;;;4975442;28;19910;-68
2022/05/12 02:17:56;;;;;;;;;;;;;;;;;;4975846;28;19917;-68
2022/05/12 02:20:22;;;;;;;;;;;;;;;;;;4975679;28;19918;-68
2022/05/12 02:22:48;;;;;;;;;;;;;;;;;;4976538;28;19910;-68
2022/05/12 02:25:14;;;;;;;;;;;;;;;;;;4975349;28;19910;-68
2022/05/12 02:27:42;;;;;;;;;;;;;;;;;;4975203;28;20349;-68
2022/05/12 02:30:08;;;;;;;;;;;;;;;;;;4975592;28;20354;-68
2022/05/12 02:32:34;;;;;;;;;;;;;;;;;;4975635;28;19910;-68
2022/05/12 02:35:00;;;;;;;;;;;;;;;;;;4975278;28;19997;-68
2022/05/12 02:37:27;;;;;;;;;;;;;;;;;;4976136;28;19936;-68
2022/05/12 02:39:53;;;;;;;;;;;;;;;;;;4978567;28;19941;-68
2022/05/12 02:42:20;;;;;;;;;;;;;;;;;;4979349;28;19922;-68
2022/05/12 02:44:46;;;;;;;;;;;;;;;;;;4979415;28;19945;-68
2022/05/12 02:47:12;;;;;;;;;;;;;;;;;;4979707;28;20400;-68
2022/05/12 02:49:38;;;;;;;;;;;;;;;;;;4979084;28;20301;-68
2022/05/12 02:52:04;;;;;;;;;;;;;;;;;;4979387;28;20001;-68
2022/05/12 02:54:30;;;;;;;;;;;;;;;;;;4978660;28;20365;-68
2022/05/12 02:56:56;;;;;;;;;;;;;;;;;;4978557;28;19918;-68
2022/05/12 02:59:22;;;;;;;;;;;;;;;;;;4979027;28;19922;-68
2022/05/12 03:01:48;;;;;;;;;;;;;;;;;;4979710;28;19910;-68
2022/05/12 03:04:14;;;;;;;;;;;;;;;;;;4978559;28;20270;-68
2022/05/12 03:06:40;;;;;;;;;;;;;;;;;;4978804;28;19914;-68
2022/05/12 03:09:06;;;;;;;;;;;;;;;;;;4978766;28;19910;-68
2022/05/12 03:11:32;;;;;;;;;;;;;;;;;;4978602;28;19941;-68
2022/05/12 03:13:59;;;;;;;;;;;;;;;;;;4978383;28;19945;-68
2022/05/12 03:16:25;;;;;;;;;;;;;;;;;;4978531;28;19917;-68
2022/05/12 03:18:53;;;;;;;;;;;;;;;;;;4978962;28;20423;-68
2022/05/12 03:21:19;;;;;;;;;;;;;;;;;;4978250;28;19910;-68
2022/05/12 03:23:45;;;;;;;;;;;;;;;;;;4978423;28;19914;-68
2022/05/12 03:26:11;;;;;;;;;;;;;;;;;;4978203;28;20294;-68
2022/05/12 03:28:37;;;;;;;;;;;;;;;;;;4978340;28;19910;-68
2022/05/12 03:31:03;;;;;;;;;;;;;;;;;;4977767;28;20340;-68
2022/05/12 03:33:29;;;;;;;;;;;;;;;;;;4978057;28;19910;-68
2022/05/12 03:35:55;;;;;;;;;;;;;;;;;;4978372;28;19916;-68
2022/05/12 03:38:21;;;;;;;;;;;;;;;;;;4978077;28;20013;-68
2022/05/12 03:40:47;;;;;;;;;;;;;;;;;;4978261;28;19956;-68
2022/05/12 03:44:46;;;;;;;;;;;;;;;;;;4977981;28;19964;-68
2022/05/12 03:45:59;;;;;;;;;;;;;;;;;;4977102;28;19914;-68
2022/05/12 03:48:25;;;;;;;;;;;;;;;;;;4977247;28;20373;-68
2022/05/12 03:50:51;;;;;;;;;;;;;;;;;;4976751;28;19910;-68
2022/05/12 03:53:17;;;;;;;;;;;;;;;;;;4977695;28;19917;-68
2022/05/12 03:55:43;;;;;;;;;;;;;;;;;;4977746;28;19914;-68
2022/05/12 03:58:09;;;;;;;;;;;;;;;;;;4977098;28;20384;-68
2022/05/12 04:00:35;;;;;;;;;;;;;;;;;;4977563;28;20001;-68
2022/05/12 04:03:01;;;;;;;;;;;;;;;;;;4977324;28;19909;-68
2022/05/12 04:05:28;;;;;;;;;;;;;;;;;;4977439;28;20005;-68
2022/05/12 04:07:54;;;;;;;;;;;;;;;;;;4977045;28;19910;-68
2022/05/12 04:10:20;;;;;;;;;;;;;;;;;;4977340;28;19910;-68
2022/05/12 04:12:46;;;;;;;;;;;;;;;;;;4977111;28;20012;-68
2022/05/12 04:15:13;;;;;;;;;;;;;;;;;;4977278;28;19953;-68
2022/05/12 04:17:39;;;;;;;;;;;;;;;;;;4977633;28;19910;-68
2022/05/12 04:20:06;;;;;;;;;;;;;;;;;;4977125;28;20324;-68
2022/05/12 04:22:33;;;;;;;;;;;;;;;;;;4976542;28;19918;-68
2022/05/12 04:24:59;;;;;;;;;;;;;;;;;;4976808;28;19910;-68
2022/05/12 04:27:25;;;;;;;;;;;;;;;;;;4977084;28;20001;-68
2022/05/12 04:29:51;;;;;;;;;;;;;;;;;;4977313;28;19917;-68
2022/05/12 04:32:17;;;;;;;;;;;;;;;;;;4977142;28;19909;-68
2022/05/12 04:37:28;;;;;;;;;;;;;;;;;;4976391;28;20005;-68
2022/05/12 04:39:54;;;;;;;;;;;;;;;;;;4976366;28;19925;-68
2022/05/12 04:42:20;;;;;;;;;;;;;;;;;;4976666;28;19924;-68
2022/05/12 04:44:46;;;;;;;;;;;;;;;;;;4977170;28;19941;-68
2022/05/12 04:47:12;;;;;;;;;;;;;;;;;;4977259;28;20450;-68
2022/05/12 04:49:38;;;;;;;;;;;;;;;;;;4976354;28;19917;-68
2022/05/12 04:52:04;;;;;;;;;;;;;;;;;;4977222;28;19910;-68
2022/05/12 04:54:30;;;;;;;;;;;;;;;;;;4976271;28;19910;-68
2022/05/12 04:56:56;;;;;;;;;;;;;;;;;;4976114;28;19910;-68
2022/05/12 04:59:22;;;;;;;;;;;;;;;;;;4976865;28;19925;-68
2022/05/12 05:01:48;;;;;;;;;;;;;;;;;;4976969;28;20045;-68
2022/05/12 05:04:14;;;;;;;;;;;;;;;;;;4976133;28;19984;-68
2022/05/12 05:06:40;;;;;;;;;;;;;;;;;;4976436;28;19917;-68
2022/05/12 05:09:06;;;;;;;;;;;;;;;;;;4976587;28;19910;-68
2022/05/12 05:11:36;;;;;;;;;;;;;;;;;;4976511;28;19949;-68
2022/05/12 05:14:02;;;;;;;;;;;;;;;;;;4979281;28;20000;-68
2022/05/12 05:16:29;;;;;;;;;;;;;;;;;;4996271;28;19952;-68
2022/05/12 05:18:56;;;;;;;;;;;;;;;;;;4993092;28;19922;-68
2022/05/12 05:21:22;;;;;;;;;;;;;;;;;;4984770;28;19921;-68
2022/05/12 05:23:48;;;;;;;;;;;;;;;;;;4985858;28;20280;-68
2022/05/12 05:26:14;;;;;;;;;;;;;;;;;;4986040;28;19945;-68
2022/05/12 05:28:40;;;;;;;;;;;;;;;;;;4984449;28;19910;-68
2022/05/12 05:31:06;;;;;;;;;;;;;;;;;;4984992;28;19964;-68
2022/05/12 05:33:32;;;;;;;;;;;;;;;;;;4986392;28;19910;-68
2022/05/12 05:35:58;;;;;;;;;;;;;;;;;;4976091;28;20492;-69
2022/05/12 05:38:24;;;;;;;;;;;;;;;;;;4975882;28;19924;-69
2022/05/12 05:40:50;;;;;;;;;;;;;;;;;;4975601;28;19914;-68
2022/05/12 05:43:16;;;;;;;;;;;;;;;;;;4975444;28;19918;-68
2022/05/12 05:45:41;;;;;;;;;;;;;;;;;;4975990;28;19910;-68
2022/05/12 05:48:07;;;;;;;;;;;;;;;;;;4976572;28;19917;-68
2022/05/12 05:53:23;;;;;;;;;;;;;;;;;;4975997;28;20343;-68
2022/05/12 05:53:25;;;;;;;;;;;;;;;;;;4975583;28;19910;-68
2022/05/12 05:55:52;;;;;;;;;;;;;;;;;;4975779;28;19937;-68
2022/05/12 05:58:18;;;;;;;;;;;;;;;;;;4975938;28;19918;-68
2022/05/12 06:00:45;;;;;;;;;;;;;;;;;;4976094;28;19910;-68
2022/05/12 06:03:11;;;;;;;;;;;;;;;;;;4975796;28;19910;-68
2022/05/12 06:05:37;;;;;;;;;;;;;;;;;;4989640;28;19964;-68
2022/05/12 06:08:03;;;;;;;;;;;;;;;;;;4994101;28;19917;-68
2022/05/12 06:10:29;;;;;;;;;;;;;;;;;;4994857;28;19910;-68
2022/05/12 06:12:55;;;;;;;;;;;;;;;;;;4996311;28;19910;-68
2022/05/12 06:15:21;;;;;;;;;;;;;;;;;;4997561;28;19909;-68
2022/05/12 06:17:47;;;;;;;;;;;;;;;;;;4994174;28;19964;-68
2022/05/12 06:20:14;;;;;;;;;;;;;;;;;;4989989;28;19925;-69
2022/05/12 06:22:40;;;;;;;;;;;;;;;;;;4980474;28;19936;-68
2022/05/12 06:25:07;;;;;;;;;;;;;;;;;;4980664;28;19910;-69
2022/05/12 06:27:33;;;;;;;;;;;;;;;;;;4983488;28;19914;-68
2022/05/12 06:29:59;;;;;;;;;;;;;;;;;;4986568;28;19910;-68
2022/05/12 06:32:26;;;;;;;;;;;;;;;;;;4991120;28;19941;-68
2022/05/12 06:34:52;;;;;;;;;;;;;;;;;;4993651;28;20016;-68
2022/05/12 06:37:19;;;;;;;;;;;;;;;;;;4998205;28;19916;-68
2022/05/12 06:39:45;;;;;;;;;;;;;;;;;;4998526;28;19918;-68
2022/05/12 06:42:12;;;;;;;;;;;;;;;;;;4980573;28;19918;-68
2022/05/12 06:44:39;;;;;;;;;;;;;;;;;;4985947;28;19913;-68
2022/05/12 06:47:05;;;;;;;;;;;;;;;;;;4997253;28;19917;-68
2022/05/12 06:49:31;;;;;;;;;;;;;;;;;;4993607;28;19910;-68
2022/05/12 06:51:57;;;;;;;;;;;;;;;;;;4997101;28;19909;-68
2022/05/12 06:54:23;;;;;;;;;;;;;;;;;;4997206;28;19960;-68
2022/05/12 06:56:49;;;;;;;;;;;;;;;;;;4996149;28;19916;-68
2022/05/12 06:59:15;;;;;;;;;;;;;;;;;;4981519;28;20005;-68
2022/05/12 07:01:41;;;;;;;;;;;;;;;;;;4997520;28;19956;-68
2022/05/12 07:04:07;;;;;;;;;;;;;;;;;;4996766;28;19912;-68
2022/05/12 07:06:33;;;;;;;;;;;;;;;;;;4997548;28;20360;-68
2022/05/12 07:08:59;;;;;;;;;;;;;;;;;;4997937;28;19910;-68
2022/05/12 07:11:25;;;;;;;;;;;;;;;;;;4996726;28;19909;-69
2022/05/12 07:13:51;;;;;;;;;;;;;;;;;;4996797;28;19917;-68
2022/05/12 07:16:18;;;;;;;;;;;;;;;;;;4997247;28;19957;-68
2022/05/12 07:18:44;;;;;;;;;;;;;;;;;;4997120;28;19917;-71
2022/05/12 07:26:42;;;;;;;;;;;;;;;;;;4993510;28;19916;-71
2022/05/12 07:29:09;;;;;;;;;;;;;;;;;;4997742;28;19916;-71
2022/05/12 07:31:35;;;;;;;;;;;;;;;;;;4997795;28;19909;-71
2022/05/12 07:34:01;;;;;;;;;;;;;;;;;;4997627;28;19910;-71
2022/05/12 07:36:27;;;;;;;;;;;;;;;;;;4997738;28;19910;-70
2022/05/12 07:38:53;;;;;;;;;;;;;;;;;;4981169;28;19968;-70
2022/05/12 07:41:19;;;;;;;;;;;;;;;;;;4978120;28;19914;-71
2022/05/12 07:43:44;;;;;;;;;;;;;;;;;;4977591;28;20013;-71
2022/05/12 07:46:11;;;;;;;;;;;;;;;;;;4978075;28;19910;-71
2022/05/12 07:48:37;;;;;;;;;;;;;;;;;;4977832;28;19917;-73
2022/05/12 07:51:03;;;;;;;;;;;;;;;;;;4977766;28;20313;-73
2022/05/12 07:53:29;;;;;;;;;;;;;;;;;;4978258;28;19910;-73
2022/05/12 07:55:55;;;;;;;;;;;;;;;;;;4977926;28;20361;-73
2022/05/12 07:58:21;;;;;;;;;;;;;;;;;;4977701;28;19977;-72
2022/05/12 08:00:47;;;;;;;;;;;;;;;;;;4977319;28;19914;-73
2022/05/12 08:03:13;;;;;;;;;;;;;;;;;;4977827;28;19917;-73
2022/05/12 08:05:39;;;;;;;;;;;;;;;;;;4977525;28;19910;-73
2022/05/12 08:08:05;;;;;;;;;;;;;;;;;;4977678;28;19910;-73
2022/05/12 08:10:31;;;;;;;;;;;;;;;;;;4977366;28;19910;-73
2022/05/12 08:12:57;;;;;;;;;;;;;;;;;;4977298;28;19940;-73
2022/05/12 08:15:25;;;;;;;;;;;;;;;;;;4993191;28;20353;-73
2022/05/12 08:17:51;;;;;;;;;;;;;;;;;;4996996;28;19910;-73
2022/05/12 08:20:17;;;;;;;;;;;;;;;;;;4996091;28;20345;-73
2022/05/12 08:22:42;;;;;;;;;;;;;;;;;;4992199;28;19914;-72
2022/05/12 08:25:09;;;;;;;;;;;;;;;;;;4977090;28;19910;-73
2022/05/12 08:27:35;;;;;;;;;;;;;;;;;;4987073;28;20360;-73
2022/05/12 08:30:01;;;;;;;;;;;;;;;;;;4979194;28;20337;-73
2022/05/12 08:32:27;;;;;;;;;;;;;;;;;;4996934;28;19910;-73
2022/05/12 08:34:53;;;;;;;;;;;;;;;;;;4996399;28;20349;-73
2022/05/12 08:37:19;;;;;;;;;;;;;;;;;;4996461;28;19910;-73
2022/05/12 08:39:54;;;;;;;;;;;;;;;;;;4985743;28;20347;-73
2022/05/12 08:42:20;;;;;;;;;;;;;;;;;;4976796;28;19921;-73
2022/05/12 08:44:47;;;;;;;;;;;;;;;;;;4976679;28;20375;-73
2022/05/12 08:47:13;;;;;;;;;;;;;;;;;;4976598;28;19914;-73
2022/05/12 08:49:39;;;;;;;;;;;;;;;;;;4976341;28;19914;-73
2022/05/12 08:52:05;;;;;;;;;;;;;;;;;;4958998;28;20001;-73
2022/05/12 08:54:31;;;;;;;;;;;;;;;;;;4976604;28;19917;-73
2022/05/12 08:56:57;;;;;;;;;;;;;;;;;;4976074;28;20273;-73
2022/05/12 08:59:23;;;;;;;;;;;;;;;;;;4976385;28;20027;-73
2022/05/12 09:01:49;;;;;;;;;;;;;;;;;;4958877;28;19917;-73
2022/05/12 09:04:16;;;;;;;;;;;;;;;;;;4976437;28;19910;-73
2022/05/12 09:06:42;;;;;;;;;;;;;;;;;;4978901;28;19910;-73
2022/05/12 09:09:09;;;;;;;;;;;;;;;;;;4987883;28;19916;-73
2022/05/12 09:11:36;;;;;;;;;;;;;;;;;;4976032;28;19910;-73
2022/05/12 09:14:06;;;;;;;;;;;;;;;;;;4972814;28;20801;-73
2022/05/12 09:16:32;;;;;;;;;;;;;;;;;;4990776;28;19992;-73
2022/05/12 09:18:58;;;;;;;;;;;;;;;;;;4994484;28;20017;-73
2022/05/12 09:21:24;;;;;;;;;;;;;;;;;;4986931;28;19940;-73
2022/05/12 09:23:50;;;;;;;;;;;;;;;;;;4980351;28;19996;-73
2022/05/12 09:26:16;;;;;;;;;;;;;;;;;;4993059;28;19913;-73
2022/05/12 09:28:42;;;;;;;;;;;;;;;;;;4975882;28;19910;-73
2022/05/12 09:31:08;;;;;;;;;;;;;;;;;;4983870;28;19917;-73
2022/05/12 09:33:34;;;;;;;;;;;;;;;;;;4995223;28;19910;-73
2022/05/12 09:36:00;;;;;;;;;;;;;;;;;;4981624;28;20276;-73
2022/05/12 09:38:26;;;;;;;;;;;;;;;;;;4976507;28;19942;-73
2022/05/12 09:40:52;;;;;;;;;;;;;;;;;;4979866;28;19909;-73
2022/05/12 09:43:18;;;;;;;;;;;;;;;;;;4995556;28;20372;-73
2022/05/12 09:45:44;;;;;;;;;;;;;;;;;;4988155;28;20242;-74
2022/05/12 09:48:10;;;;;;;;;;;;;;;;;;4988522;28;19925;-73
2022/05/12 09:50:36;;;;;;;;;;;;;;;;;;4993084;28;19910;-73
2022/05/12 09:53:02;;;;;;;;;;;;;;;;;;4979637;28;20262;-73
2022/05/12 09:55:28;;;;;;;;;;;;;;;;;;4980300;28;19926;-74
2022/05/12 09:57:54;;;;;;;;;;;;;;;;;;4980594;28;19965;-74
2022/05/12 10:00:20;;;;;;;;;;;;;;;;;;4979693;28;20357;-74
2022/05/12 10:08:16;;;;;;;;;;;;;;;;;;4989938;28;19957;-73
2022/05/12 10:10:42;;;;;;;;;;;;;;;;;;4987956;28;19945;-73
2022/05/12 10:13:08;;;;;;;;;;;;;;;;;;4998463;28;19964;-73
2022/05/12 10:15:35;;;;;;;;;;;;;;;;;;4984597;28;19909;-73
2022/05/12 10:18:01;;;;;;;;;;;;;;;;;;4992298;28;19984;-73
2022/05/12 10:20:27;;;;;;;;;;;;;;;;;;4999051;28;20357;-73
2022/05/12 10:22:53;;;;;;;;;;;;;;;;;;4998708;28;19918;-73
2022/05/12 10:25:19;;;;;;;;;;;;;;;;;;4998714;28;20292;-73
2022/05/12 10:27:45;;;;;;;;;;;;;;;;;;4988855;28;19917;-73
2022/05/12 10:30:11;;;;;;;;;;;;;;;;;;4979289;28;19910;-73
2022/05/12 10:32:37;;;;;;;;;;;;;;;;;;4979115;28;20025;-73
2022/05/12 10:35:03;;;;;;;;;;;;;;;;;;4979298;28;19913;-73
2022/05/12 10:37:29;;;;;;;;;;;;;;;;;;4980074;28;19910;-73
2022/05/12 10:39:55;;;;;;;;;;;;;;;;;;4987587;28;19925;-73
2022/05/12 10:42:21;;;;;;;;;;;;;;;;;;4984825;28;19948;-74
2022/05/12 10:44:47;;;;;;;;;;;;;;;;;;4997484;28;19956;-74
2022/05/12 10:47:13;;;;;;;;;;;;;;;;;;4997635;28;19913;-74
2022/05/12 10:49:41;;;;;;;;;;;;;;;;;;4998636;28;19914;-72
2022/05/12 10:52:07;;;;;;;;;;;;;;;;;;4998901;28;19917;-73
2022/05/12 10:54:33;;;;;;;;;;;;;;;;;;4996899;28;19921;-73
2022/05/12 10:56:59;;;;;;;;;;;;;;;;;;4975636;28;20350;-73
2022/05/12 10:59:25;;;;;;;;;;;;;;;;;;4977061;28;19973;-73
2022/05/12 11:01:51;;;;;;;;;;;;;;;;;;4982415;28;19910;-73
2022/05/12 11:04:17;;;;;;;;;;;;;;;;;;4986231;28;19917;-73
2022/05/12 11:06:43;;;;;;;;;;;;;;;;;;4980621;28;19920;-72
2022/05/12 11:09:09;;;;;;;;;;;;;;;;;;4996732;28;20353;-73
2022/05/12 11:11:35;;;;;;;;;;;;;;;;;;4996406;28;20280;-73
2022/05/12 11:14:01;;;;;;;;;;;;;;;;;;4996999;28;19917;-73
2022/05/12 11:16:27;;;;;;;;;;;;;;;;;;4996549;28;19910;-73
2022/05/12 11:18:53;;;;;;;;;;;;;;;;;;4997118;28;19928;-73
2022/05/12 11:21:19;;;;;;;;;;;;;;;;;;4997170;28;19910;-73
2022/05/12 11:23:45;;;;;;;;;;;;;;;;;;4996722;28;20004;-72
2022/05/12 11:26:11;;;;;;;;;;;;;;;;;;4993335;28;19949;-73
2022/05/12 11:31:24;;;;;;;;;;;;;;;;;;4976090;28;19961;-73
2022/05/12 11:33:50;;;;;;;;;;;;;;;;;;4965889;28;20284;-73
2022/05/12 11:36:16;;;;;;;;;;;;;;;;;;4996907;28;19996;-73
2022/05/12 11:38:43;;;;;;;;;;;;;;;;;;4996297;28;19925;-73
2022/05/12 11:41:09;;;;;;;;;;;;;;;;;;4996422;28;19910;-73
2022/05/12 11:46:19;;;;;;;;;;;;;;;;;;4996242;28;19916;-73
2022/05/12 11:48:45;;;;;;;;;;;;;;;;;;4996721;28;19910;-73
2022/05/12 11:51:11;;;;;;;;;;;;;;;;;;4996603;28;19926;-72
2022/05/12 11:53:37;;;;;;;;;;;;;;;;;;4995833;28;19981;-70
2022/05/12 11:56:03;;;;;;;;;;;;;;;;;;4996646;28;19914;-69
2022/05/12 11:58:29;;;;;;;;;;;;;;;;;;4997491;28;19910;-70
2022/05/12 12:00:55;;;;;;;;;;;;;;;;;;4997279;28;20367;-70
2022/05/12 12:03:22;;;;;;;;;;;;;;;;;;4997236;28;19910;-70
2022/05/12 12:05:50;;;;;;;;;;;;;;;;;;4997075;28;20008;-69
2022/05/12 12:08:16;;;;;;;;;;;;;;;;;;4985157;28;19910;-69
2022/05/12 12:10:43;;;;;;;;;;;;;;;;;;4976442;28;19988;-69
2022/05/12 12:13:09;;;;;;;;;;;;;;;;;;4977608;28;19913;-69
2022/05/12 12:15:36;;;;;;;;;;;;;;;;;;4983079;28;20269;-69
2022/05/12 12:18:01;;;;;;;;;;;;;;;;;;4978876;28;19925;-69
2022/05/12 12:20:28;;;;;;;;;;;;;;;;;;4995867;28;19925;-69
2022/05/12 12:22:53;;;;;;;;;;;;;;;;;;4994053;28;19918;-73
2022/05/12 12:25:19;;;;;;;;;;;;;;;;;;4994770;28;19917;-70
2022/05/12 12:27:45;;;;;;;;;;;;;;;;;;4988584;28;20349;-71
2022/05/12 12:30:11;;;;;;;;;;;;;;;;;;4976463;28;19910;-70
2022/05/12 12:32:47;;;;;;;;;;;;;;;;;;5092005;27;19936;-69
2022/05/12 12:35:13;;;;;;;;;;;;;;;;;;5092755;28;19912;-69
2022/05/12 12:37:39;;;;;;;;;;;;;;;;;;5092768;28;19966;-69
2022/05/12 12:40:05;;;;;;;;;;;;;;;;;;5092507;28;20003;-69
2022/05/12 12:42:33;;;;;;;;;;;;;;;;;;5092227;28;19962;-69
2022/05/12 12:44:59;;;;;;;;;;;;;;;;;;5091981;28;20378;-69
2022/05/12 12:47:25;;;;;;;;;;;;;;;;;;5092235;28;19916;-69
2022/05/12 12:49:51;;;;;;;;;;;;;;;;;;5092389;28;19912;-69
2022/05/12 12:52:17;;;;;;;;;;;;;;;;;;5092535;28;19980;-69
2022/05/12 12:57:28;;;;;;;;;;;;;;;;;;5091438;28;20383;-69
2022/05/12 12:59:54;;;;;;;;;;;;;;;;;;5091432;28;20007;-69
2022/05/12 13:02:20;;;;;;;;;;;;;;;;;;5092283;28;20060;-69
2022/05/12 13:04:46;;;;;;;;;;;;;;;;;;5091658;28;19912;-69
2022/05/12 13:07:14;;;;;;;;;;;;;;;;;;5092330;28;19919;-69
2022/05/12 13:09:41;;;;;;;;;;;;;;;;;;5091309;28;19948;-69
2022/05/12 13:12:07;;;;;;;;;;;;;;;;;;5091600;28;19924;-68
2022/05/12 13:14:33;;;;;;;;;;;;;;;;;;5091202;28;19982;-69
2022/05/12 13:16:59;;;;;;;;;;;;;;;;;;5092075;28;20456;-69
2022/05/12 13:19:25;;;;;;;;;;;;;;;;;;5091050;28;20366;-69
2022/05/12 13:21:51;;;;;;;;;;;;;;;;;;5091716;28;19912;-69
2022/05/12 13:24:18;;;;;;;;;;;;;;;;;;5091001;28;19985;-69
2022/05/12 13:26:44;;;;;;;;;;;;;;;;;;5090656;28;19913;-73
2022/05/12 13:29:10;;;;;;;;;;;;;;;;;;5089616;28;19919;-69
2022/05/12 13:31:36;;;;;;;;;;;;;;;;;;5100635;28;19920;-69
2022/05/12 13:34:04;;;;;;;;;;;;;;;;;;5110018;28;19912;-67
2022/05/12 13:36:30;;;;;;;;;;;;;;;;;;5111142;28;19955;-67
2022/05/12 13:38:56;;;;;;;;;;;;;;;;;;5111866;28;19912;-68
2022/05/12 13:41:22;;;;;;;;;;;;;;;;;;5111184;28;19916;-67
2022/05/12 13:43:48;;;;;;;;;;;;;;;;;;5100580;28;20385;-68
2022/05/12 13:46:14;;;;;;;;;;;;;;;;;;5097895;28;19912;-67
2022/05/12 13:48:40;;;;;;;;;;;;;;;;;;5101962;28;19912;-65
2022/05/12 13:51:07;;;;;;;;;;;;;;;;;;5081338;28;19977;-67
2022/05/12 13:53:33;;;;;;;;;;;;;;;;;;5098087;28;20429;-67
2022/05/12 13:55:59;;;;;;;;;;;;;;;;;;5097354;28;19962;-67
2022/05/12 13:58:25;;;;;;;;;;;;;;;;;;5097380;28;19912;-66
2022/05/12 14:00:55;;;;;;;;;;;;;;;;;;5097391;28;19912;-68
2022/05/12 14:03:21;;;;;;;;;;;;;;;;;;5109626;28;19912;-67
2022/05/12 14:05:47;;;;;;;;;;;;;;;;;;5118341;28;19915;-68
2022/05/12 14:08:13;;;;;;;;;;;;;;;;;;5098946;28;19919;-68
2022/05/12 14:10:39;;;;;;;;;;;;;;;;;;5097674;28;19920;-67
2022/05/12 14:21:19;;;;;;;;;;;;;;;;;;5097061;28;19919;-67
2022/05/12 14:23:45;;;;;;;;;;;;;;;;;;5097104;28;19912;-68
2022/05/12 14:26:11;;;;;;;;;;;;;;;;;;5097022;28;20262;-68
2022/05/12 14:28:37;;;;;;;;;;;;;;;;;;5097541;28;19916;-68
2022/05/12 14:31:03;;;;;;;;;;;;;;;;;;5096937;28;19970;-67
2022/05/12 14:33:29;;;;;;;;;;;;;;;;;;5097359;28;19912;-67
2022/05/12 14:35:55;;;;;;;;;;;;;;;;;;5096743;28;20045;-68
2022/05/12 14:38:21;;;;;;;;;;;;;;;;;;5096587;28;19912;-68
2022/05/12 14:40:47;;;;;;;;;;;;;;;;;;5095588;28;19923;-67
2022/05/12 14:43:13;;;;;;;;;;;;;;;;;;5096283;28;19913;-67
2022/05/12 14:45:39;;;;;;;;;;;;;;;;;;5096090;28;19912;-67
2022/05/12 14:48:05;;;;;;;;;;;;;;;;;;5109799;28;19919;-67
2022/05/12 14:50:31;;;;;;;;;;;;;;;;;;5100775;28;19912;-68
2022/05/12 14:52:57;;;;;;;;;;;;;;;;;;5096450;28;19922;-67
2022/05/12 14:55:24;;;;;;;;;;;;;;;;;;5095748;28;19912;-71
2022/05/12 15:14:18;;;;;;;9.95;3.33;;;;;;;;;;5131657;27;20395;-68
2022/05/12 15:16:44;;;;;;;8.35;2.97;;;;;;;;;;5132771;28;20050;-69
2022/05/12 15:19:11;;;;;;;11.27;3.35;;;;;;;;;;5131714;28;20039;-69
2022/05/12 15:21:38;;;;;;;7.47;2.90;;;;;;;;;;5132102;28;20606;-69
2022/05/12 15:24:04;;;;;;;8.27;2.67;;;;;;;;;;5132280;28;20096;-69
2022/05/12 15:26:32;;;;;;;7.72;2.80;;;;;;;;;;5132768;28;20486;-69
2022/05/12 15:28:58;;;;;;;7.90;2.60;;;;;;;;;;5133191;27;20075;-69
2022/05/12 15:31:24;;;;;;;7.68;3.47;;;;;;;;;;5131820;28;20472;-69
2022/05/12 15:33:51;;;;;;;8.73;3.28;;;;;;;;;;5131618;27;20047;-69
2022/05/12 15:36:22;;;;;;;8.45;3.03;;;;;;;;;;5131865;27;20059;-69
2022/05/12 15:38:48;;;;;;;5.50;2.53;;;;;;;;;;5131601;28;20525;-69
2022/05/12 15:41:15;;;;;;;14.50;3.00;;;;;;;;;;5131902;28;20118;-69
2022/05/12 15:43:41;;;;;;;6.75;3.22;;;;;;;;;;5132351;28;20047;-69
2022/05/12 15:46:08;;;;;;;7.30;3.00;;;;;;;;;;5131195;28;20555;-69
2022/05/12 15:48:34;;;;;;;7.22;2.88;;;;;;;;;;5131390;28;20040;-69
2022/05/12 15:51:01;;;;;;;11.98;3.10;;;;;;;;;;5132185;28;20046;-69
2022/05/12 15:53:27;;;;;;;10.85;3.50;;;;;;;;;;5131438;28;20104;-69
2022/05/12 15:55:53;;;;;;;8.40;3.00;;;;;;;;;;5131444;28;20084;-69
2022/05/12 15:58:19;;;;;;;7.57;3.08;;;;;;;;;;5131645;28;20363;-69
2022/05/12 16:00:46;;;;;;;8.80;3.03;;;;;;;;;;5124950;27;20085;-69
2022/05/12 16:03:14;;;;;;;6.03;2.65;;;;;;;;;;5130703;28;20058;-69
2022/05/12 16:05:40;;;;;;;9.02;3.47;;;;;;;;;;5131092;28;20047;-70
2022/05/12 16:08:07;;;;;;;7.28;3.00;;;;;;;;;;5131405;28;20078;-70
2022/05/12 16:10:33;;;;;;;6.93;2.90;;;;;;;;;;5131648;28;20031;-69
2022/05/12 16:12:59;;;;;;;6.03;2.78;;;;;;;;;;5131412;28;20047;-69
2022/05/12 16:15:29;;;;;;;6.30;2.70;;;;;;;;;;5117044;28;20038;-69
2022/05/12 16:17:56;;;;;;;9.85;3.38;;;;;;;;;;5114072;28;20035;-70
2022/05/12 16:20:23;;;;;;;7.10;2.80;;;;;;;;;;5117864;28;20039;-69
2022/05/12 16:22:50;;;;;;;7.97;2.58;;;;;;;;;;5117173;28;20086;-69
2022/05/12 16:25:21;;;;;;;9.45;2.60;;;;;;;;;;5118590;28;20044;-69
2022/05/12 16:27:47;;;;;;;;;;;;;;;;;;5117998;28;20036;-69
2022/05/12 16:30:16;;;;;;;7.93;2.70;;;;;;;;;;5116991;28;19933;-69
2022/05/12 16:32:42;;;;;;;9.02;3.03;;;;;;;;;;5117065;28;20100;-69
2022/05/12 16:35:08;;;;;;;7.75;2.33;;;;;;;;;;5117160;28;20040;-69
2022/05/12 16:37:35;;;;;;;8.55;3.08;;;;;;;;;;5116966;28;20032;-70
2022/05/12 16:40:05;;;;;;;6.85;2.60;;;;;;;;;;5117403;28;20088;-69
2022/05/12 16:42:31;;;;;;;12.88;2.95;;;;;;;;;;5118011;28;20187;-69
2022/05/12 16:44:57;;;;;;;9.30;2.95;;;;;;;;;;5116735;28;20042;-69
2022/05/12 16:47:24;;;;;;;9.80;3.25;;;;;;;;;;5117516;28;20036;-69
2022/05/12 16:49:50;;;;;;;15.65;2.60;;;;;;;;;;5117369;28;20040;-69
2022/05/12 16:52:17;;;;;;;6.95;2.95;;;;;;;;;;5116945;28;20047;-70
2022/05/12 16:54:44;;;;;;;8.00;2.50;;;;;;;;;;5117300;28;20035;-70
2022/05/12 16:57:11;;;;;;;6.82;2.50;;;;;;;;;;5098112;28;20071;-70
2022/05/12 16:59:39;;;;;;;5.88;2.30;;;;;;;;;;5109343;27;20028;-69
2022/05/12 17:02:05;;;;;;;6.05;2.65;;;;;;;;;;5112369;28;20078;-69
2022/05/12 17:04:31;;;;;;;9.40;2.53;;;;;;;;;;5116369;28;20048;-69
2022/05/12 17:06:58;;;;;;;8.18;2.60;;;;;;;;;;5117135;28;20050;-69
2022/05/12 17:09:26;;;;;;;13.73;2.90;;;;;;;;;;5116738;28;20176;-69